Time;durP1;ratioP1;P1;durP2;ratioP2;P2;SDS_P1;SDS_P2;PMS_P1;PMS_P2;Temp;Humidity;BMP_temperature;BMP_pressure;BME280_temperature;BME280_humidity;BME280_pressure;Samples;Min_cycle;Max_cycle;Signal;HPM_P1;HPM_P2
2022/01/26 00:07:18;;;;;;;53.90;20.97;;;;;;;;;;4735618;30;20563;-86
2022/01/26 00:10:23;;;;;;;52.30;20.67;;;;;;;;;;4721337;30;20636;-86
2022/01/26 00:13:27;;;;;;;58.97;20.77;;;;;;;;;;4728746;30;20643;-86
2022/01/26 00:16:42;;;;;;;60.20;22.17;;;;;;;;;;4737699;30;21202;-86
2022/01/26 00:23:05;;;;;;;58.53;21.90;;;;;;;;;;4742274;30;20557;-86
2022/01/26 00:26:25;;;;;;;62.03;22.50;;;;;;;;;;4722144;30;20639;-86
2022/01/26 00:29:34;;;;;;;67.37;23.10;;;;;;;;;;4724680;30;20563;-86
2022/01/26 00:33:06;;;;;;;59.07;21.40;;;;;;;;;;4714171;30;20617;-86
2022/01/26 00:39:31;;;;;;;60.57;22.13;;;;;;;;;;4714702;30;20569;-85
2022/01/26 00:42:38;;;;;;;63.50;23.63;;;;;;;;;;4714419;30;20617;-85
2022/01/26 00:45:43;;;;;;;60.83;21.77;;;;;;;;;;4716003;30;20642;-85
2022/01/26 00:48:49;;;;;;;73.60;23.53;;;;;;;;;;4726544;30;20616;-85
2022/01/26 00:51:54;;;;;;;60.97;23.00;;;;;;;;;;4723960;30;20613;-85
2022/01/26 00:54:58;;;;;;;59.97;23.30;;;;;;;;;;4730689;30;21263;-85
2022/01/26 00:58:03;;;;;;;75.40;25.03;;;;;;;;;;4714289;30;21137;-85
2022/01/26 01:01:08;;;;;;;63.27;22.77;;;;;;;;;;4704612;30;20597;-85
2022/01/26 01:04:12;;;;;;;65.90;22.77;;;;;;;;;;4730619;30;20664;-85
2022/01/26 01:07:20;;;;;;;71.13;24.90;;;;;;;;;;4720036;30;20613;-85
2022/01/26 01:10:25;;;;;;;65.43;25.20;;;;;;;;;;4728770;30;20605;-86
2022/01/26 01:13:35;;;;;;;68.87;24.70;;;;;;;;;;4724274;30;20574;-85
2022/01/26 01:16:39;;;;;;;64.40;23.87;;;;;;;;;;4724428;30;20980;-85
2022/01/26 01:20:00;;;;;;;71.00;25.30;;;;;;;;;;4732849;30;20610;-85
2022/01/26 01:30:07;;;;;;;73.83;25.23;;;;;;;;;;4745255;30;20560;-86
2022/01/26 01:33:18;;;;;;;71.77;25.30;;;;;;;;;;4728897;30;20560;-85
2022/01/26 01:36:23;;;;;;;79.03;27.53;;;;;;;;;;4717709;30;21109;-85
2022/01/26 01:39:29;;;;;;;78.23;25.57;;;;;;;;;;4732279;30;20612;-85
2022/01/26 01:42:33;;;;;;;73.80;26.70;;;;;;;;;;4717355;30;20573;-85
2022/01/26 01:45:45;;;;;;;69.37;25.63;;;;;;;;;;4721264;30;20661;-85
2022/01/26 01:48:49;;;;;;;67.20;24.50;;;;;;;;;;4718067;30;20628;-85
2022/01/26 01:52:01;;;;;;;66.27;25.03;;;;;;;;;;4717349;30;20927;-85
2022/01/26 01:55:06;;;;;;;72.43;26.00;;;;;;;;;;4727063;30;20684;-85
2022/01/26 01:58:10;;;;;;;72.57;25.23;;;;;;;;;;4717880;30;21199;-85
2022/01/26 02:01:14;;;;;;;71.67;25.53;;;;;;;;;;4720375;30;20605;-85
2022/01/26 02:04:18;;;;;;;73.67;26.07;;;;;;;;;;4734471;30;20648;-85
2022/01/26 02:07:22;;;;;;;62.47;22.70;;;;;;;;;;4734199;30;20917;-86
2022/01/26 02:10:29;;;;;;;70.47;24.83;;;;;;;;;;4734766;30;20556;-86
2022/01/26 02:13:42;;;;;;;68.10;24.07;;;;;;;;;;4729911;30;20644;-86
2022/01/26 02:17:00;;;;;;;72.77;25.83;;;;;;;;;;4716934;30;20558;-86
2022/01/26 02:20:46;;;;;;;70.13;26.07;;;;;;;;;;4717129;30;20645;-85
2022/01/26 02:54:22;;;;;;;69.30;24.67;;;;;;;;;;4716085;30;20652;-86
2022/01/26 02:57:41;;;;;;;73.00;26.53;;;;;;;;;;4716282;30;20586;-85
2022/01/26 03:13:34;;;;;;;74.70;26.93;;;;;;;;;;4733177;30;20619;-86
2022/01/26 03:16:44;;;;;;;74.77;29.00;;;;;;;;;;4725001;30;21162;-86
2022/01/26 03:19:52;;;;;;;63.57;26.00;;;;;;;;;;4734111;30;20616;-86
2022/01/26 03:29:55;;;;;;;65.43;24.73;;;;;;;;;;4732740;30;20686;-85
2022/01/26 03:36:26;;;;;;;64.83;26.27;;;;;;;;;;4737113;30;20614;-85
2022/01/26 03:39:39;;;;;;;73.13;27.10;;;;;;;;;;4735406;30;20637;-85
2022/01/26 03:42:44;;;;;;;68.97;25.87;;;;;;;;;;4732184;30;20954;-85
2022/01/26 03:45:48;;;;;;;65.83;26.97;;;;;;;;;;4732739;30;20653;-85
2022/01/26 03:48:53;;;;;;;66.73;27.23;;;;;;;;;;4732681;30;20934;-85
2022/01/26 03:51:57;;;;;;;68.87;26.43;;;;;;;;;;4732554;30;20624;-85
2022/01/26 03:55:01;;;;;;;75.07;26.67;;;;;;;;;;4732927;30;21053;-85
2022/01/26 03:58:05;;;;;;;66.53;26.23;;;;;;;;;;4718971;30;21231;-85
2022/01/26 04:01:09;;;;;;;71.43;26.90;;;;;;;;;;4732503;30;20607;-85
2022/01/26 04:04:14;;;;;;;64.37;26.23;;;;;;;;;;4732015;30;20667;-85
2022/01/26 04:07:18;;;;;;;72.10;26.77;;;;;;;;;;4725340;30;20567;-85
2022/01/26 04:10:37;;;;;;;70.93;26.40;;;;;;;;;;4715397;30;20558;-85
2022/01/26 04:13:41;;;;;;;67.17;26.40;;;;;;;;;;4706251;30;20622;-86
2022/01/26 04:16:45;;;;;;;70.97;28.20;;;;;;;;;;4724845;30;20617;-85
2022/01/26 04:19:55;;;;;;;75.87;27.20;;;;;;;;;;4731450;30;21199;-85
2022/01/26 04:23:12;;;;;;;72.97;27.80;;;;;;;;;;4716964;30;20646;-86
2022/01/26 04:26:23;;;;;;;63.83;25.93;;;;;;;;;;4714670;30;20986;-85
2022/01/26 04:29:32;;;;;;;65.13;25.03;;;;;;;;;;4725124;30;20612;-85
2022/01/26 04:32:36;;;;;;;71.40;26.70;;;;;;;;;;4732415;30;20576;-85
2022/01/26 04:35:44;;;;;;;61.97;25.67;;;;;;;;;;4724567;30;20685;-85
2022/01/26 04:38:53;;;;;;;63.23;25.67;;;;;;;;;;4716595;30;20614;-85
2022/01/26 04:42:02;;;;;;;71.83;26.53;;;;;;;;;;4715120;30;20617;-85
2022/01/26 04:45:09;;;;;;;77.10;28.30;;;;;;;;;;4714449;30;20669;-85
2022/01/26 04:48:14;;;;;;;75.77;27.00;;;;;;;;;;4715621;30;20573;-85
2022/01/26 04:51:17;;;;;;;76.73;27.73;;;;;;;;;;4728689;30;20638;-85
2022/01/26 04:54:22;;;;;;;80.50;27.70;;;;;;;;;;4734797;30;20660;-85
2022/01/26 04:57:26;;;;;;;81.83;28.23;;;;;;;;;;4718463;30;20568;-85
2022/01/26 05:00:30;;;;;;;85.03;28.47;;;;;;;;;;4728793;30;20567;-85
2022/01/26 05:03:34;;;;;;;83.30;28.60;;;;;;;;;;4737750;30;20631;-85
2022/01/26 05:06:38;;;;;;;82.83;29.03;;;;;;;;;;4725215;30;20636;-85
2022/01/26 05:09:42;;;;;;;74.63;26.97;;;;;;;;;;4718070;30;20980;-85
2022/01/26 05:12:46;;;;;;;82.23;28.17;;;;;;;;;;4725123;30;20974;-85
2022/01/26 05:15:51;;;;;;;77.10;26.83;;;;;;;;;;4745581;25;20720;-88
2022/01/26 05:18:55;;;;;;;73.37;27.43;;;;;;;;;;4727337;30;20575;-88
2022/01/26 05:21:59;;;;;;;77.73;29.10;;;;;;;;;;4725864;30;20615;-88
2022/01/26 05:25:04;;;;;;;63.13;26.73;;;;;;;;;;4709910;30;20647;-88
2022/01/26 05:28:08;;;;;;;73.70;27.33;;;;;;;;;;4720084;30;20563;-88
2022/01/26 05:31:13;;;;;;;65.07;26.47;;;;;;;;;;4705206;30;20640;-88
2022/01/26 05:34:17;;;;;;;64.43;25.00;;;;;;;;;;4706962;30;20676;-88
2022/01/26 05:37:23;;;;;;;64.37;26.10;;;;;;;;;;4699695;30;20615;-88
2022/01/26 05:40:26;;;;;;;61.77;25.27;;;;;;;;;;4700372;30;20566;-87
2022/01/26 05:43:34;;;;;;;69.13;27.23;;;;;;;;;;4705264;30;20630;-88
2022/01/26 05:46:43;;;;;;;71.80;28.00;;;;;;;;;;4700023;30;20564;-88
2022/01/26 05:49:47;;;;;;;71.13;28.10;;;;;;;;;;4699868;30;20915;-88
2022/01/26 05:52:52;;;;;;;76.73;29.23;;;;;;;;;;4701591;30;20620;-88
2022/01/26 05:55:57;;;;;;;79.43;28.80;;;;;;;;;;4716896;30;20672;-88
2022/01/26 05:59:01;;;;;;;74.93;29.63;;;;;;;;;;4716430;30;20621;-88
2022/01/26 06:02:05;;;;;;;80.90;30.27;;;;;;;;;;4716676;30;20626;-87
2022/01/26 06:05:10;;;;;;;75.53;28.37;;;;;;;;;;4716722;30;21224;-88
2022/01/26 06:08:14;;;;;;;78.17;29.90;;;;;;;;;;4708924;30;20651;-87
2022/01/26 06:11:19;;;;;;;67.23;27.27;;;;;;;;;;4689858;30;20617;-87
2022/01/26 06:14:23;;;;;;;63.40;26.80;;;;;;;;;;4708956;30;20657;-87
2022/01/26 06:17:27;;;;;;;60.77;25.60;;;;;;;;;;4709184;30;20582;-87
2022/01/26 06:20:31;;;;;;;61.67;24.97;;;;;;;;;;4699338;30;20571;-88
2022/01/26 06:23:35;;;;;;;62.53;25.27;;;;;;;;;;4709664;30;20613;-87
2022/01/26 06:26:41;;;;;;;54.87;23.70;;;;;;;;;;4708899;30;20594;-88
2022/01/26 06:29:46;;;;;;;63.60;25.77;;;;;;;;;;4715752;30;20609;-89
2022/01/26 06:32:50;;;;;;;58.40;24.73;;;;;;;;;;4689367;30;20558;-89
2022/01/26 06:35:56;;;;;;;62.67;26.43;;;;;;;;;;4700784;30;21250;-88
2022/01/26 06:39:00;;;;;;;57.53;24.70;;;;;;;;;;4726574;30;20567;-88
2022/01/26 06:42:11;;;;;;;48.97;21.90;;;;;;;;;;4706303;30;20570;-88
2022/01/26 06:45:18;;;;;;;46.57;22.30;;;;;;;;;;4705647;30;20643;-87
2022/01/26 06:51:42;;;;;;;50.10;21.73;;;;;;;;;;4700996;30;20606;-88
2022/01/26 06:54:47;;;;;;;48.23;22.93;;;;;;;;;;4707964;30;20750;-89
2022/01/26 06:57:51;;;;;;;47.93;21.10;;;;;;;;;;4715056;30;20590;-88
2022/01/26 07:00:55;;;;;;;41.30;18.70;;;;;;;;;;4708183;30;20624;-89
2022/01/26 07:03:59;;;;;;;46.83;21.43;;;;;;;;;;4688542;30;20576;-89
2022/01/26 07:07:03;;;;;;;45.40;19.40;;;;;;;;;;4703404;30;20617;-88
2022/01/26 07:10:08;;;;;;;47.57;19.93;;;;;;;;;;4715943;30;20566;-88
2022/01/26 07:13:12;;;;;;;46.03;19.33;;;;;;;;;;4725468;30;20646;-88
2022/01/26 07:19:55;;;;;;;39.20;18.67;;;;;;;;;;4717539;30;21229;-88
2022/01/26 07:22:59;;;;;;;44.17;19.43;;;;;;;;;;4698478;30;20612;-88
2022/01/26 07:26:03;;;;;;;52.30;24.97;;;;;;;;;;4697719;30;20653;-88
2022/01/26 07:29:11;;;;;;;48.03;23.07;;;;;;;;;;4701689;30;20610;-88
2022/01/26 07:32:15;;;;;;;51.03;21.60;;;;;;;;;;4712595;30;20591;-88
2022/01/26 07:35:20;;;;;;;47.30;22.23;;;;;;;;;;4724803;30;20648;-88
2022/01/26 07:38:25;;;;;;;46.13;20.83;;;;;;;;;;4725030;30;21209;-88
2022/01/26 07:41:30;;;;;;;45.10;21.83;;;;;;;;;;4706056;30;20602;-89
2022/01/26 07:44:34;;;;;;;41.77;19.97;;;;;;;;;;4697924;30;20641;-89
2022/01/26 07:47:38;;;;;;;46.33;20.47;;;;;;;;;;4688211;30;20602;-88
2022/01/26 07:50:42;;;;;;;40.57;19.03;;;;;;;;;;4697920;30;20562;-88
2022/01/26 07:53:46;;;;;;;42.77;18.23;;;;;;;;;;4698469;30;20610;-88
2022/01/26 07:56:50;;;;;;;39.73;18.80;;;;;;;;;;4697770;30;20619;-88
2022/01/26 07:59:54;;;;;;;46.27;19.57;;;;;;;;;;4703917;30;20598;-88
2022/01/26 08:02:59;;;;;;;40.03;18.30;;;;;;;;;;4703913;30;20598;-88
2022/01/26 08:06:04;;;;;;;39.80;16.37;;;;;;;;;;4713323;30;20652;-89
2022/01/26 08:09:08;;;;;;;41.53;18.07;;;;;;;;;;4705348;30;20581;-89
2022/01/26 08:12:17;;;;;;;41.07;20.03;;;;;;;;;;4715045;30;20571;-89
2022/01/26 08:15:22;;;;;;;93.80;47.07;;;;;;;;;;4714628;30;20692;-89
2022/01/26 08:18:27;;;;;;;124.43;57.47;;;;;;;;;;4704771;30;20562;-89
2022/01/26 08:21:31;;;;;;;55.03;26.70;;;;;;;;;;4714912;30;20558;-89
2022/01/26 08:24:36;;;;;;;35.80;17.77;;;;;;;;;;4714755;30;20634;-88
2022/01/26 08:27:45;;;;;;;81.70;43.67;;;;;;;;;;4704055;30;20555;-88
2022/01/26 08:30:49;;;;;;;61.33;29.00;;;;;;;;;;4714738;30;20575;-88
2022/01/26 08:33:53;;;;;;;53.43;25.17;;;;;;;;;;4706549;30;20600;-88
2022/01/26 08:36:57;;;;;;;44.73;19.73;;;;;;;;;;4697274;30;20618;-88
2022/01/26 08:40:03;;;;;;;42.10;20.00;;;;;;;;;;4687478;30;20629;-88
2022/01/26 08:43:07;;;;;;;42.00;19.23;;;;;;;;;;4687634;30;20917;-88
2022/01/26 08:46:11;;;;;;;59.03;27.37;;;;;;;;;;4687273;30;20770;-88
2022/01/26 08:49:15;;;;;;;57.40;30.63;;;;;;;;;;4687779;30;20558;-89
2022/01/26 08:52:19;;;;;;;77.23;37.93;;;;;;;;;;4714551;30;20565;-88
2022/01/26 08:55:23;;;;;;;91.90;46.17;;;;;;;;;;4714568;30;20640;-88
2022/01/26 08:58:27;;;;;;;82.33;42.50;;;;;;;;;;4728213;30;20614;-88
2022/01/26 09:01:31;;;;;;;48.70;23.67;;;;;;;;;;4732113;30;20628;-89
2022/01/26 09:04:36;;;;;;;38.57;19.17;;;;;;;;;;4722160;30;20645;-88
2022/01/26 09:07:43;;;;;;;44.23;20.13;;;;;;;;;;4731696;30;20563;-88
2022/01/26 09:10:53;;;;;;;42.77;19.93;;;;;;;;;;4731851;30;20578;-88
2022/01/26 09:13:59;;;;;;;42.00;20.33;;;;;;;;;;4718405;30;20602;-88
2022/01/26 09:17:05;;;;;;;52.70;26.70;;;;;;;;;;4712771;30;20645;-88
2022/01/26 09:20:10;;;;;;;40.40;20.43;;;;;;;;;;4714400;30;20583;-88
2022/01/26 09:23:14;;;;;;;46.37;23.30;;;;;;;;;;4714556;30;20557;-88
2022/01/26 09:26:19;;;;;;;44.97;26.03;;;;;;;;;;4709697;30;21240;-89
2022/01/26 09:29:23;;;;;;;36.23;18.73;;;;;;;;;;4686930;30;20621;-88
2022/01/26 09:32:26;;;;;;;34.93;17.10;;;;;;;;;;4696629;30;20621;-88
2022/01/26 09:35:31;;;;;;;75.07;42.20;;;;;;;;;;4696632;30;21222;-88
2022/01/26 09:38:35;;;;;;;73.77;38.07;;;;;;;;;;4687001;30;20606;-88
2022/01/26 09:41:40;;;;;;;54.33;28.33;;;;;;;;;;4700020;30;20629;-88
2022/01/26 09:44:44;;;;;;;35.07;18.93;;;;;;;;;;4699596;30;21019;-88
2022/01/26 09:47:48;;;;;;;38.73;20.83;;;;;;;;;;4719988;30;20908;-89
2022/01/26 09:50:55;;;;;;;40.43;19.97;;;;;;;;;;4699999;30;20558;-88
2022/01/26 09:54:05;;;;;;;43.57;21.63;;;;;;;;;;4709891;30;20566;-88
2022/01/26 09:57:09;;;;;;;32.63;17.37;;;;;;;;;;4699796;30;20614;-88
2022/01/26 10:00:13;;;;;;;31.43;16.37;;;;;;;;;;4708473;30;20641;-88
2022/01/26 10:03:25;;;;;;;38.93;18.40;;;;;;;;;;4709751;30;20908;-88
2022/01/26 10:06:30;;;;;;;46.63;27.00;;;;;;;;;;4689807;30;20562;-88
2022/01/26 10:19:10;;;;;;;30.30;15.57;;;;;;;;;;4708663;30;20634;-89
2022/01/26 10:22:25;;;;;;;32.97;16.33;;;;;;;;;;4701401;30;20619;-88
2022/01/26 10:25:29;;;;;;;35.90;17.90;;;;;;;;;;4707270;30;20673;-88
2022/01/26 10:28:47;;;;;;;32.63;16.50;;;;;;;;;;4706602;30;20604;-88
2022/01/26 10:31:51;;;;;;;31.47;16.10;;;;;;;;;;4701137;30;20606;-88
2022/01/26 10:35:01;;;;;;;39.13;20.07;;;;;;;;;;4693994;30;20669;-88
2022/01/26 10:38:05;;;;;;;35.43;18.27;;;;;;;;;;4716165;30;20654;-88
2022/01/26 10:41:20;;;;;;;33.83;17.03;;;;;;;;;;4711006;30;20619;-88
2022/01/26 10:44:30;;;;;;;36.33;16.60;;;;;;;;;;4699073;30;20992;-88
2022/01/26 10:47:37;;;;;;;34.10;17.80;;;;;;;;;;4703573;30;21175;-89
2022/01/26 10:53:51;;;;;;;35.70;18.27;;;;;;;;;;4726201;30;20630;-88
2022/01/26 10:56:55;;;;;;;35.47;17.37;;;;;;;;;;4709501;30;20660;-88
2022/01/26 10:59:59;;;;;;;34.43;17.23;;;;;;;;;;4706293;30;20575;-88
2022/01/26 11:03:05;;;;;;;35.13;17.43;;;;;;;;;;4702015;30;20606;-88
2022/01/26 11:06:17;;;;;;;33.03;16.70;;;;;;;;;;4715230;30;20660;-88
2022/01/26 11:09:25;;;;;;;33.03;16.83;;;;;;;;;;4706177;30;20567;-88
2022/01/26 11:12:30;;;;;;;82.40;42.73;;;;;;;;;;4724348;30;20986;-88
2022/01/26 11:15:35;;;;;;;39.17;19.07;;;;;;;;;;4713390;30;20680;-88
2022/01/26 11:18:53;;;;;;;31.30;16.73;;;;;;;;;;4714903;30;20606;-88
2022/01/26 11:22:06;;;;;;;41.17;25.60;;;;;;;;;;4688524;30;20622;-88
2022/01/26 11:25:11;;;;;;;39.00;19.27;;;;;;;;;;4728711;30;20669;-88
2022/01/26 11:28:21;;;;;;;33.87;17.57;;;;;;;;;;4724074;30;20624;-88
2022/01/26 11:31:26;;;;;;;38.47;17.50;;;;;;;;;;4707949;30;20606;-88
2022/01/26 11:34:32;;;;;;;36.17;17.07;;;;;;;;;;4708299;30;20651;-88
2022/01/26 11:37:44;;;;;;;34.33;16.73;;;;;;;;;;4718127;30;20658;-88
2022/01/26 11:47:40;;;;;;;35.43;17.20;;;;;;;;;;4708246;30;20919;-87
2022/01/26 11:50:48;;;;;;;37.07;18.47;;;;;;;;;;4695090;30;20978;-88
2022/01/26 11:53:52;;;;;;;38.40;18.10;;;;;;;;;;4706293;30;21008;-87
2022/01/26 11:57:12;;;;;;;38.20;18.07;;;;;;;;;;4707776;30;20665;-88
2022/01/26 12:00:34;;;;;;;38.07;18.63;;;;;;;;;;4688132;30;20630;-88
2022/01/26 12:03:48;;;;;;;39.93;18.27;;;;;;;;;;4719408;30;21180;-88
2022/01/26 12:07:00;;;;;;;38.83;19.10;;;;;;;;;;4715007;30;20562;-88
2022/01/26 12:10:04;;;;;;;35.33;17.83;;;;;;;;;;4712581;30;20671;-88
2022/01/26 12:13:16;;;;;;;39.80;18.97;;;;;;;;;;4714879;30;21110;-88
2022/01/26 12:16:23;;;;;;;35.47;17.20;;;;;;;;;;4705640;30;20609;-88
2022/01/26 12:36:13;;;;;;;34.00;18.17;;;;;;;;;;4717699;30;20656;-88
2022/01/26 12:41:10;;;;;;;34.90;18.70;;;;;;;;;;4700743;30;20957;-88
2022/01/26 12:45:54;;;;;;;33.77;18.50;;;;;;;;;;4715948;30;21026;-88
2022/01/26 12:49:05;;;;;;;32.03;17.77;;;;;;;;;;4704111;30;20597;-88
2022/01/26 12:52:10;;;;;;;38.50;19.63;;;;;;;;;;4715370;30;20613;-88
2022/01/26 12:55:23;;;;;;;32.30;17.43;;;;;;;;;;4699402;30;20674;-88
2022/01/26 12:58:30;;;;;;;33.37;17.77;;;;;;;;;;4707619;30;20667;-88
2022/01/26 13:01:35;;;;;;;35.73;18.60;;;;;;;;;;4702666;30;20615;-88
2022/01/26 13:04:39;;;;;;;34.63;18.47;;;;;;;;;;4718600;30;20657;-88
2022/01/26 13:07:43;;;;;;;37.63;18.23;;;;;;;;;;4703598;30;20585;-88
2022/01/26 13:10:47;;;;;;;36.00;18.17;;;;;;;;;;4714407;30;20561;-88
2022/01/26 13:14:39;;;;;;;32.10;16.80;;;;;;;;;;4706278;30;20975;-88
2022/01/26 13:17:50;;;;;;;36.40;17.50;;;;;;;;;;4666265;30;21244;-87
2022/01/26 13:21:33;;;;;;;34.67;18.03;;;;;;;;;;4642967;30;21021;-88
2022/01/26 13:24:51;;;;;;;33.90;16.70;;;;;;;;;;4703552;30;21023;-88
2022/01/26 13:41:22;;;;;;;33.40;16.00;;;;;;;;;;4703050;30;20623;-87
2022/01/26 13:51:35;;;;;;;32.50;17.40;;;;;;;;;;4687489;30;20653;-88
2022/01/26 13:54:55;;;;;;;36.37;18.20;;;;;;;;;;4720526;30;20647;-87
2022/01/26 14:01:30;;;;;;;60.47;36.13;;;;;;;;;;4691946;30;20659;-87
2022/01/26 14:04:34;;;;;;;109.07;56.40;;;;;;;;;;4699505;30;21036;-88
2022/01/26 14:07:39;;;;;;;62.30;29.97;;;;;;;;;;4700292;30;20554;-85
2022/01/26 14:10:46;;;;;;;40.23;19.07;;;;;;;;;;4709643;30;20559;-88
2022/01/26 14:13:55;;;;;;;36.13;18.07;;;;;;;;;;4699755;30;21040;-87
2022/01/26 14:17:01;;;;;;;39.67;18.93;;;;;;;;;;4709418;30;20566;-87
2022/01/26 14:26:29;;;;;;;49.27;24.77;;;;;;;;;;4709000;30;20622;-87
2022/01/26 14:29:52;;;;;;;47.83;24.53;;;;;;;;;;4699448;30;20572;-88
2022/01/26 14:36:42;;;;;;;36.40;17.27;;;;;;;;;;4719388;30;20568;-87
2022/01/26 15:00:27;;;;;;;38.50;19.30;;;;;;;;;;4709578;30;20559;-86
2022/01/26 15:30:44;;;;;;;38.93;21.07;;;;;;;;;;4709968;30;20563;-87
2022/01/26 15:34:18;;;;;;;38.83;16.87;;;;;;;;;;4699380;30;21122;-87
2022/01/26 15:50:24;;;;;;;53.93;24.73;;;;;;;;;;4689888;30;21146;-88
2022/01/26 17:34:32;;;;;;;29.57;13.70;;;;;;;;;;4724695;30;20927;-89
2022/01/26 17:43:15;;;;;;;26.23;13.00;;;;;;;;;;4714860;30;21263;-89
2022/01/26 17:55:15;;;;;;;34.50;16.03;;;;;;;;;;4723674;30;20619;-89
2022/01/26 18:06:31;;;;;;;30.97;16.77;;;;;;;;;;4709703;30;20647;-91
2022/01/26 18:32:24;;;;;;;37.40;18.53;;;;;;;;;;4738676;30;20567;-90
2022/01/26 18:39:23;;;;;;;30.03;15.83;;;;;;;;;;4717883;30;20623;-90
2022/01/26 18:46:38;;;;;;;28.73;14.93;;;;;;;;;;4709467;30;20644;-90
2022/01/26 18:49:21;;;;;;;29.53;14.27;;;;;;;;;;4704629;30;20926;-91
2022/01/26 18:52:25;;;;;;;27.43;14.07;;;;;;;;;;4709547;30;20625;-90
2022/01/26 18:55:29;;;;;;;29.93;14.20;;;;;;;;;;4690460;30;20649;-90
2022/01/26 18:58:33;;;;;;;28.73;14.83;;;;;;;;;;4710862;30;20562;-90
2022/01/26 19:01:38;;;;;;;27.70;14.33;;;;;;;;;;4691744;30;20593;-90
2022/01/26 19:04:46;;;;;;;24.97;13.20;;;;;;;;;;4711066;30;20649;-90
2022/01/26 19:07:51;;;;;;;26.90;14.60;;;;;;;;;;4710860;30;20567;-89
2022/01/26 19:10:56;;;;;;;26.53;13.67;;;;;;;;;;4694214;30;20571;-90
2022/01/26 19:14:03;;;;;;;26.87;14.70;;;;;;;;;;4711073;30;20987;-90
2022/01/26 19:17:18;;;;;;;33.70;16.30;;;;;;;;;;4710277;30;20571;-90
2022/01/26 19:20:42;;;;;;;35.23;16.20;;;;;;;;;;4710917;30;20621;-90
2022/01/26 19:24:19;;;;;;;33.63;14.90;;;;;;;;;;4719511;30;20582;-89
2022/01/26 19:27:33;;;;;;;30.43;14.57;;;;;;;;;;4719494;30;20581;-90
2022/01/26 19:44:05;;;;;;;27.83;14.80;;;;;;;;;;4720821;30;20614;-90
2022/01/26 19:47:15;;;;;;;34.77;14.80;;;;;;;;;;4720830;30;20555;-90
2022/01/26 19:53:43;;;;;;;33.33;16.67;;;;;;;;;;4721346;30;20613;-90
2022/01/26 19:56:47;;;;;;;33.47;16.43;;;;;;;;;;4709629;30;20625;-90
2022/01/26 19:59:51;;;;;;;34.30;16.20;;;;;;;;;;4716485;30;20666;-90
2022/01/26 20:02:57;;;;;;;30.33;15.43;;;;;;;;;;4730159;30;21186;-90
2022/01/26 20:06:05;;;;;;;34.23;16.07;;;;;;;;;;4720973;30;20645;-90
2022/01/26 20:09:20;;;;;;;32.20;15.23;;;;;;;;;;4705152;30;20614;-90
2022/01/26 20:12:37;;;;;;;33.17;16.20;;;;;;;;;;4688902;30;20563;-89
2022/01/26 20:15:41;;;;;;;38.10;20.00;;;;;;;;;;4691034;30;20685;-90
2022/01/26 20:18:45;;;;;;;35.27;18.20;;;;;;;;;;4717872;30;20614;-90
2022/01/26 20:21:50;;;;;;;37.57;17.17;;;;;;;;;;4717926;30;20935;-90
2022/01/26 20:24:54;;;;;;;35.00;16.57;;;;;;;;;;4716733;30;21224;-90
2022/01/26 20:28:05;;;;;;;36.47;16.67;;;;;;;;;;4704693;30;20623;-90
2022/01/26 20:31:18;;;;;;;38.47;18.30;;;;;;;;;;4716734;30;20550;-90
2022/01/26 20:34:22;;;;;;;39.77;18.30;;;;;;;;;;4711618;30;20669;-90
2022/01/26 20:37:28;;;;;;;37.43;17.37;;;;;;;;;;4692506;30;20622;-90
2022/01/26 20:40:33;;;;;;;34.70;16.47;;;;;;;;;;4690538;30;20618;-90
2022/01/26 20:43:37;;;;;;;39.77;18.30;;;;;;;;;;4690844;30;20562;-90
2022/01/26 20:46:41;;;;;;;33.57;17.63;;;;;;;;;;4687994;30;20572;-91
2022/01/26 20:49:45;;;;;;;39.10;17.67;;;;;;;;;;4697112;30;20989;-90
2022/01/26 20:52:51;;;;;;;39.10;17.87;;;;;;;;;;4697050;30;20630;-89
2022/01/26 20:55:56;;;;;;;32.50;15.97;;;;;;;;;;4687067;30;20655;-89
2022/01/26 20:59:00;;;;;;;33.73;16.30;;;;;;;;;;4692189;30;20606;-90
2022/01/26 21:02:04;;;;;;;32.17;17.00;;;;;;;;;;4701317;30;20975;-90
2022/01/26 21:05:10;;;;;;;33.10;15.73;;;;;;;;;;4699116;30;20672;-90
2022/01/26 21:08:16;;;;;;;31.87;15.70;;;;;;;;;;4711353;30;20755;-90
2022/01/26 21:11:20;;;;;;;28.97;14.17;;;;;;;;;;4709575;30;20611;-90
2022/01/26 21:14:24;;;;;;;27.77;13.77;;;;;;;;;;4700737;30;21295;-90
2022/01/26 21:17:28;;;;;;;29.97;14.83;;;;;;;;;;4708398;30;20609;-90
2022/01/26 21:20:33;;;;;;;27.40;13.87;;;;;;;;;;4694276;30;20667;-90
2022/01/26 21:23:37;;;;;;;26.27;13.07;;;;;;;;;;4707538;30;20566;-89
2022/01/26 21:26:41;;;;;;;25.93;12.97;;;;;;;;;;4703008;30;20642;-90
2022/01/26 21:29:45;;;;;;;25.47;14.30;;;;;;;;;;4715512;30;20562;-90
2022/01/26 21:32:50;;;;;;;34.37;15.03;;;;;;;;;;4714886;30;20565;-90
2022/01/26 21:35:54;;;;;;;25.03;13.00;;;;;;;;;;4715779;30;20652;-90
2022/01/26 21:38:58;;;;;;;26.60;13.10;;;;;;;;;;4700393;30;21182;-90
2022/01/26 21:42:03;;;;;;;29.70;13.47;;;;;;;;;;4691920;30;20558;-90
2022/01/26 21:45:08;;;;;;;27.20;13.20;;;;;;;;;;4703460;30;21027;-89
2022/01/26 21:48:13;;;;;;;21.37;11.53;;;;;;;;;;4704826;30;20618;-90
2022/01/26 21:51:16;;;;;;;23.47;12.63;;;;;;;;;;4693882;30;20569;-90
2022/01/26 21:54:20;;;;;;;29.17;13.23;;;;;;;;;;4696481;30;20659;-89
2022/01/26 21:57:26;;;;;;;29.50;13.37;;;;;;;;;;4705308;30;20594;-90
2022/01/26 22:00:31;;;;;;;24.20;12.77;;;;;;;;;;4700647;30;20665;-90
2022/01/26 22:03:35;;;;;;;30.97;14.23;;;;;;;;;;4709955;30;20649;-90
2022/01/26 22:06:39;;;;;;;25.63;13.87;;;;;;;;;;4715372;30;20613;-89
2022/01/26 22:09:45;;;;;;;26.83;13.37;;;;;;;;;;4690684;30;20564;-90
2022/01/26 22:12:49;;;;;;;25.43;13.60;;;;;;;;;;4699816;30;20634;-90
2022/01/26 22:15:53;;;;;;;26.80;14.53;;;;;;;;;;4706118;30;20673;-89
2022/01/26 22:18:58;;;;;;;27.43;14.00;;;;;;;;;;4716217;30;20609;-90
2022/01/26 22:22:02;;;;;;;29.40;13.90;;;;;;;;;;4699062;30;20563;-90
2022/01/26 22:25:07;;;;;;;31.73;14.83;;;;;;;;;;4702863;30;20660;-90
2022/01/26 22:28:16;;;;;;;39.47;20.70;;;;;;;;;;4705276;30;20644;-90
2022/01/26 22:31:21;;;;;;;34.07;17.17;;;;;;;;;;4702475;30;20562;-90
2022/01/26 22:34:26;;;;;;;30.47;15.63;;;;;;;;;;4739972;30;20647;-90
2022/01/26 22:37:30;;;;;;;31.20;16.80;;;;;;;;;;4706710;30;20604;-90
2022/01/26 22:40:38;;;;;;;30.90;15.20;;;;;;;;;;4727608;30;20681;-90
2022/01/26 22:43:44;;;;;;;28.80;15.20;;;;;;;;;;4727636;30;20570;-91
2022/01/26 22:46:48;;;;;;;30.17;15.70;;;;;;;;;;4728099;30;20555;-90
2022/01/26 22:49:52;;;;;;;30.87;15.07;;;;;;;;;;4728781;30;20615;-90
2022/01/26 22:52:56;;;;;;;26.07;13.67;;;;;;;;;;4738295;30;20628;-90
2022/01/26 22:56:01;;;;;;;27.70;14.47;;;;;;;;;;4710696;30;20669;-90
2022/01/26 22:59:05;;;;;;;27.63;15.30;;;;;;;;;;4716202;30;20621;-90
2022/01/26 23:02:41;;;;;;;26.93;14.30;;;;;;;;;;4717538;30;21189;-90
2022/01/26 23:09:00;;;;;;;26.00;13.33;;;;;;;;;;4738089;30;20647;-90
2022/01/26 23:12:05;;;;;;;27.70;14.37;;;;;;;;;;4699672;30;20614;-90
2022/01/26 23:15:10;;;;;;;22.20;13.27;;;;;;;;;;4696690;30;20664;-90
2022/01/26 23:18:14;;;;;;;27.37;15.03;;;;;;;;;;4702558;30;20617;-90
2022/01/26 23:21:20;;;;;;;25.53;14.13;;;;;;;;;;4698183;30;20657;-89
2022/01/26 23:24:32;;;;;;;24.50;13.47;;;;;;;;;;4708495;30;20736;-89
2022/01/26 23:27:49;;;;;;;25.23;14.80;;;;;;;;;;4698345;30;21221;-89
2022/01/26 23:31:06;;;;;;;25.93;14.10;;;;;;;;;;4694046;30;20637;-90
2022/01/26 23:34:34;;;;;;;24.50;14.40;;;;;;;;;;4698639;30;20622;-89
2022/01/26 23:41:03;;;;;;;23.03;13.17;;;;;;;;;;4715182;30;20672;-89
